createdAt,value
2023-02-06T00:05:07.361Z,18.4
2023-02-06T00:35:05.618Z,18.4
2023-02-06T00:50:06.560Z,18.4
2023-02-06T01:05:05.912Z,18.4
2023-02-06T01:35:09.829Z,18.4
2023-02-06T01:50:05.772Z,18.4
2023-02-06T02:05:08.650Z,18.4
2023-02-06T02:20:09.674Z,18.4
2023-02-06T02:50:07.640Z,18.4
2023-02-06T03:05:08.866Z,18.4
2023-02-06T03:35:05.922Z,18.4
2023-02-06T04:05:08.891Z,18.5
2023-02-06T04:20:05.883Z,18.6
2023-02-06T04:35:09.800Z,18.7
2023-02-06T04:50:06.692Z,18.8
2023-02-06T05:05:08.483Z,18.9
2023-02-06T05:20:06.547Z,19
2023-02-06T05:35:09.634Z,19
2023-02-06T05:50:08.085Z,19
2023-02-06T06:05:06.643Z,18.9
2023-02-06T06:35:06.096Z,18.9
2023-02-06T07:05:10.033Z,18.9
2023-02-06T07:20:09.956Z,18.7
2023-02-06T07:35:05.889Z,18.5
2023-02-06T07:50:06.768Z,17.9
2023-02-06T08:05:08.684Z,17.2
2023-02-06T08:20:05.624Z,16.4
2023-02-06T08:35:10.117Z,16.1
2023-02-06T08:50:09.010Z,16.2
2023-02-06T09:05:08.104Z,16.8
2023-02-06T09:20:05.645Z,17.4
2023-02-06T09:35:10.319Z,18.1
2023-02-06T09:50:07.108Z,18.7
2023-02-06T10:05:06.037Z,18.9
2023-02-06T10:20:06.773Z,19
2023-02-06T10:35:06.152Z,19.1
2023-02-06T10:50:08.203Z,19.2
2023-02-06T11:05:10.066Z,19.2
2023-02-06T11:20:09.760Z,19.3
2023-02-06T11:35:07.177Z,19.3
2023-02-06T11:50:09.082Z,19.3
2023-02-06T12:05:09.024Z,19.3
2023-02-06T12:20:09.036Z,19.4
2023-02-06T12:35:09.066Z,19.4
2023-02-06T12:50:07.186Z,19.4
2023-02-06T13:05:08.994Z,19.5
2023-02-06T13:20:07.067Z,19.5
2023-02-06T13:35:09.873Z,19.5
2023-02-06T13:50:07.287Z,19.5
2023-02-06T14:05:07.041Z,19.5
2023-02-06T14:20:09.774Z,19.5
2023-02-06T14:35:08.240Z,19.5
2023-02-06T14:50:09.272Z,19.5
2023-02-06T15:05:06.804Z,19.5
2023-02-06T15:20:06.157Z,19.6
2023-02-06T15:35:10.065Z,19.6
2023-02-06T15:50:06.975Z,19.7
2023-02-06T16:05:10.360Z,19.7
2023-02-06T16:20:06.313Z,19.7
2023-02-06T16:35:09.180Z,19.7
2023-02-06T16:50:08.239Z,19.6
2023-02-06T17:05:09.926Z,19.5
2023-02-06T17:20:10.373Z,19.4
2023-02-06T17:35:09.323Z,19.4
2023-02-06T17:50:06.323Z,19.4
2023-02-06T18:05:08.249Z,19.4
2023-02-06T18:20:09.442Z,19.4
2023-02-06T18:35:09.918Z,19.4
2023-02-06T18:50:07.875Z,19.4
2023-02-06T19:05:09.098Z,19.3
2023-02-06T19:20:08.116Z,19.3
2023-02-06T19:35:06.340Z,19.2
2023-02-06T19:50:10.288Z,19.1
2023-02-06T20:05:07.197Z,19.1
2023-02-06T20:20:10.499Z,19
2023-02-06T20:35:08.431Z,19
2023-02-06T20:50:09.992Z,18.9
2023-02-06T21:05:06.477Z,18.9
2023-02-06T21:20:10.381Z,18.9
2023-02-06T21:35:07.200Z,18.8
2023-02-06T21:50:07.556Z,18.8
2023-02-06T22:05:08.294Z,18.8
2023-02-06T22:20:07.493Z,18.9
2023-02-06T22:35:10.308Z,18.9
2023-02-06T22:50:10.255Z,18.9
2023-02-06T23:05:08.289Z,18.9
2023-02-06T23:20:10.472Z,18.9
2023-02-06T23:35:06.456Z,18.9
2023-02-06T23:50:09.295Z,18.9
